PWSweather.com
Personal Weather Stations
Station Observations
60DEGNUK
Firth, MossbankGB ZE2 9TF

FirthMossbankGB ZE2 9TF

Lat: 60.448922, Lon: -1.19346

Elevation: 60

Station Type: Watson

Latest ConditionsUpdated 1:50:01 PM GMT Tuesday, Jan 23, 2018
Currently Today's Max Today's Min Today's Average
Temperature 44.8°F7.1°C 45.3°F7.4°C 44.1°F6.7°C 44.7°F7.1°C
Dew Point 40.9°F4.9°C 41.4°F5.2°C 39.5°F4.2°C 40.5°F4.7°C
Winds 3.8 mph SW6.1 kmh SW 21.3 mph SSW34.3 kmh SSW - 11.4 mph 18.3 kmh
Wind Gusts 9.2 mph14.8 kmh 29.8 mph48.0 kmh - -
Humidity 86% 86% 83% 85%
Pressure 29.87 in1011.5 mb 30.19 in1022.4 mb 29.87 in1011.5 mb -
Precipitation - 0.04 in1.0 mm - -
Hour Temp Dew Point Humidity Winds Wind Gusts Pressure Precip Precip Rate Daily Precip Total
01:50 PM 44.8°F7.1°C 40.9°F4.9°C 86% 3.8 mph SW6.1 kmh SW 9.2 mph14.8 kmh 29.87 in1011.5 mb 0.01 in0.3 mm 0.00 in0.0 mm 0.04 in1.0 mm
01:45 PM 44.8°F7.1°C 40.9°F4.9°C 86% 3.1 mph WSW5.0 kmh WSW 13.0 mph20.9 kmh 29.88 in1011.9 mb 0.01 in0.3 mm 0.00 in0.0 mm 0.04 in1.0 mm
01:40 PM 44.8°F7.1°C 40.9°F4.9°C 86% 3.8 mph SW6.1 kmh SW 13.0 mph20.9 kmh 29.89 in1012.2 mb 0.01 in0.3 mm 0.00 in0.0 mm 0.04 in1.0 mm
01:35 PM 44.8°F7.1°C 40.9°F4.9°C 86% 6.0 mph SW9.7 kmh SW 13.0 mph20.9 kmh 29.89 in1012.2 mb 0.01 in0.3 mm 0.00 in0.0 mm 0.04 in1.0 mm
01:30 PM 44.8°F7.1°C 40.6°F4.8°C 85% 8.3 mph SW13.4 kmh SW 12.1 mph19.5 kmh 29.89 in1012.2 mb 0.01 in0.3 mm 0.00 in0.0 mm 0.04 in1.0 mm
01:25 PM 45.0°F7.2°C 40.7°F4.8°C 85% 3.1 mph SW5.0 kmh SW 13.0 mph20.9 kmh 29.89 in1012.2 mb 0.01 in0.3 mm 0.00 in0.0 mm 0.04 in1.0 mm
01:20 PM 45.0°F7.2°C 40.7°F4.8°C 85% 6.0 mph SW9.7 kmh SW 13.6 mph21.9 kmh 29.89 in1012.2 mb 0.01 in0.3 mm 0.12 in3.0 mm 0.04 in1.0 mm
01:15 PM 45.1°F7.3°C 41.2°F5.1°C 86% 6.0 mph SW9.7 kmh SW 13.6 mph21.9 kmh 29.90 in1012.5 mb 0.00 in0.0 mm 0.00 in0.0 mm 0.02 in0.5 mm
01:10 PM 45.1°F7.3°C 41.2°F5.1°C 86% 5.4 mph SW8.7 kmh SW 13.6 mph21.9 kmh 29.90 in1012.5 mb 0.00 in0.0 mm 0.00 in0.0 mm 0.02 in0.5 mm
01:05 PM 45.1°F7.3°C 41.2°F5.1°C 86% 7.6 mph SW12.2 kmh SW 14.5 mph23.3 kmh 29.90 in1012.5 mb 0.00 in0.0 mm 0.00 in0.0 mm 0.02 in0.5 mm
01:00 PM 45.3°F7.4°C 41.4°F5.2°C 86% 8.3 mph SW13.4 kmh SW 15.2 mph24.5 kmh 29.90 in1012.5 mb 0.00 in0.0 mm 0.00 in0.0 mm 0.02 in0.5 mm
12:55 PM 45.3°F7.4°C 41.4°F5.2°C 86% 8.3 mph SW13.4 kmh SW 15.2 mph24.5 kmh 29.90 in1012.5 mb 0.01 in0.3 mm 0.00 in0.0 mm 0.02 in0.5 mm
12:50 PM 45.3°F7.4°C 41.4°F5.2°C 86% 9.2 mph SW14.8 kmh SW 15.2 mph24.5 kmh 29.91 in1012.9 mb 0.01 in0.3 mm 0.00 in0.0 mm 0.02 in0.5 mm
12:45 PM 45.3°F7.4°C 41.4°F5.2°C 86% 7.6 mph SW12.2 kmh SW 14.5 mph23.3 kmh 29.91 in1012.9 mb 0.01 in0.3 mm 0.00 in0.0 mm 0.02 in0.5 mm
12:40 PM 45.3°F7.4°C 41.4°F5.2°C 86% 8.3 mph SW13.4 kmh SW 13.6 mph21.9 kmh 29.91 in1012.9 mb 0.01 in0.3 mm 0.00 in0.0 mm 0.02 in0.5 mm
12:35 PM 45.3°F7.4°C 41.4°F5.2°C 86% 7.6 mph SW12.2 kmh SW 15.2 mph24.5 kmh 29.91 in1012.9 mb 0.01 in0.3 mm 0.00 in0.0 mm 0.02 in0.5 mm
12:30 PM 45.3°F7.4°C 41.4°F5.2°C 86% 6.0 mph SW9.7 kmh SW 15.2 mph24.5 kmh 29.92 in1013.2 mb 0.01 in0.3 mm 0.00 in0.0 mm 0.02 in0.5 mm
12:25 PM 45.3°F7.4°C 41.4°F5.2°C 86% 10.7 mph SW17.2 kmh SW 17.4 mph28.0 kmh 29.92 in1013.2 mb 0.01 in0.3 mm 0.00 in0.0 mm 0.02 in0.5 mm
12:20 PM 45.3°F7.4°C 41.4°F5.2°C 86% 9.2 mph SW14.8 kmh SW 17.4 mph28.0 kmh 29.93 in1013.5 mb 0.01 in0.3 mm 0.00 in0.0 mm 0.02 in0.5 mm
12:15 PM 45.3°F7.4°C 41.4°F5.2°C 86% 11.4 mph SW18.3 kmh SW 15.9 mph25.6 kmh 29.93 in1013.5 mb 0.01 in0.3 mm 0.00 in0.0 mm 0.02 in0.5 mm
12:10 PM 45.3°F7.4°C 41.4°F5.2°C 86% 9.2 mph SW14.8 kmh SW 15.2 mph24.5 kmh 29.93 in1013.5 mb 0.01 in0.3 mm 0.00 in0.0 mm 0.02 in0.5 mm
12:05 PM 45.3°F7.4°C 41.4°F5.2°C 86% 9.2 mph SW14.8 kmh SW 15.2 mph24.5 kmh 29.94 in1013.9 mb 0.01 in0.3 mm 0.00 in0.0 mm 0.02 in0.5 mm
12:00 PM 45.3°F7.4°C 41.4°F5.2°C 86% 8.3 mph SW13.4 kmh SW 15.2 mph24.5 kmh 29.94 in1013.9 mb 0.01 in0.3 mm 0.01 in0.3 mm 0.02 in0.5 mm
11:55 AM 45.3°F7.4°C 41.4°F5.2°C 86% 6.9 mph SW11.1 kmh SW 15.9 mph25.6 kmh 29.95 in1014.2 mb 0.00 in0.0 mm 0.00 in0.0 mm 0.01 in0.3 mm
11:50 AM 45.3°F7.4°C 41.4°F5.2°C 86% 7.6 mph SW12.2 kmh SW 15.9 mph25.6 kmh 29.95 in1014.2 mb 0.00 in0.0 mm 0.00 in0.0 mm 0.01 in0.3 mm
11:45 AM 45.3°F7.4°C 41.4°F5.2°C 86% 10.7 mph SW17.2 kmh SW 16.8 mph27.0 kmh 29.95 in1014.2 mb 0.00 in0.0 mm 0.00 in0.0 mm 0.01 in0.3 mm
11:40 AM 45.3°F7.4°C 41.4°F5.2°C 86% 11.4 mph SW18.3 kmh SW 19.0 mph30.6 kmh 29.95 in1014.2 mb 0.00 in0.0 mm 0.00 in0.0 mm 0.01 in0.3 mm
11:35 AM 45.3°F7.4°C 41.4°F5.2°C 86% 9.2 mph SW14.8 kmh SW 19.0 mph30.6 kmh 29.95 in1014.2 mb 0.00 in0.0 mm 0.00 in0.0 mm 0.01 in0.3 mm
11:30 AM 45.3°F7.4°C 41.4°F5.2°C 86% 13.6 mph SW21.9 kmh SW 17.4 mph28.0 kmh 29.96 in1014.6 mb 0.00 in0.0 mm 0.00 in0.0 mm 0.01 in0.3 mm
11:25 AM 45.3°F7.4°C 41.4°F5.2°C 86% 9.2 mph SW14.8 kmh SW 17.4 mph28.0 kmh 29.96 in1014.6 mb 0.00 in0.0 mm 0.00 in0.0 mm 0.01 in0.3 mm
11:20 AM 45.3°F7.4°C 41.4°F5.2°C 86% 11.4 mph SW18.3 kmh SW 17.4 mph28.0 kmh 29.96 in1014.6 mb 0.00 in0.0 mm 0.00 in0.0 mm 0.01 in0.3 mm
11:15 AM 45.3°F7.4°C 41.4°F5.2°C 86% 10.7 mph SW17.2 kmh SW 17.4 mph28.0 kmh 29.97 in1014.9 mb 0.00 in0.0 mm 0.00 in0.0 mm 0.01 in0.3 mm
11:10 AM 45.1°F7.3°C 41.2°F5.1°C 86% 12.1 mph SW19.5 kmh SW 21.3 mph34.3 kmh 29.97 in1014.9 mb 0.00 in0.0 mm 0.00 in0.0 mm 0.01 in0.3 mm
11:05 AM 45.1°F7.3°C 41.2°F5.1°C 86% 10.7 mph SW17.2 kmh SW 21.3 mph34.3 kmh 29.98 in1015.2 mb 0.00 in0.0 mm 0.00 in0.0 mm 0.01 in0.3 mm
11:00 AM 45.1°F7.3°C 41.2°F5.1°C 86% 10.7 mph SW17.2 kmh SW 17.4 mph28.0 kmh 29.98 in1015.2 mb 0.00 in0.0 mm 0.00 in0.0 mm 0.01 in0.3 mm
10:55 AM 45.1°F7.3°C 41.2°F5.1°C 86% 9.8 mph SW15.8 kmh SW 18.3 mph29.5 kmh 29.98 in1015.2 mb 0.00 in0.0 mm 0.00 in0.0 mm 0.01 in0.3 mm
10:50 AM 45.1°F7.3°C 41.2°F5.1°C 86% 10.7 mph SW17.2 kmh SW 18.3 mph29.5 kmh 29.98 in1015.2 mb 0.00 in0.0 mm 0.00 in0.0 mm 0.01 in0.3 mm
10:45 AM 45.0°F7.2°C 40.7°F4.8°C 85% 7.6 mph WSW12.2 kmh WSW 19.0 mph30.6 kmh 29.98 in1015.2 mb 0.00 in0.0 mm 0.00 in0.0 mm 0.01 in0.3 mm
10:40 AM 45.0°F7.2°C 40.7°F4.8°C 85% 9.2 mph WSW14.8 kmh WSW 19.0 mph30.6 kmh 29.99 in1015.6 mb 0.00 in0.0 mm 0.00 in0.0 mm 0.01 in0.3 mm
10:35 AM 45.0°F7.2°C 40.7°F4.8°C 85% 10.7 mph WSW17.2 kmh WSW 19.7 mph31.7 kmh 29.99 in1015.6 mb 0.00 in0.0 mm 0.00 in0.0 mm 0.01 in0.3 mm
10:30 AM 45.0°F7.2°C 40.7°F4.8°C 85% 7.6 mph SW12.2 kmh SW 19.7 mph31.7 kmh 29.99 in1015.6 mb 0.00 in0.0 mm 0.00 in0.0 mm 0.01 in0.3 mm
10:25 AM 44.8°F7.1°C 40.6°F4.8°C 85% 7.6 mph SW12.2 kmh SW 19.0 mph30.6 kmh 29.99 in1015.6 mb 0.00 in0.0 mm 0.00 in0.0 mm 0.01 in0.3 mm
10:20 AM 45.0°F7.2°C 40.7°F4.8°C 85% 9.8 mph SW15.8 kmh SW 20.6 mph33.2 kmh 29.99 in1015.6 mb 0.00 in0.0 mm 0.00 in0.0 mm 0.01 in0.3 mm
10:15 AM 45.0°F7.2°C 40.7°F4.8°C 85% 10.7 mph SW17.2 kmh SW 20.6 mph33.2 kmh 30.00 in1015.9 mb 0.00 in0.0 mm 0.00 in0.0 mm 0.01 in0.3 mm
10:10 AM 45.0°F7.2°C 40.7°F4.8°C 85% 9.8 mph SW15.8 kmh SW 19.7 mph31.7 kmh 30.00 in1015.9 mb 0.00 in0.0 mm 0.00 in0.0 mm 0.01 in0.3 mm
10:05 AM 45.1°F7.3°C 40.9°F4.9°C 85% 12.1 mph SW19.5 kmh SW 21.3 mph34.3 kmh 30.01 in1016.3 mb 0.00 in0.0 mm 0.00 in0.0 mm 0.01 in0.3 mm
10:00 AM 45.1°F7.3°C 40.9°F4.9°C 85% 10.7 mph SW17.2 kmh SW 21.3 mph34.3 kmh 30.01 in1016.3 mb 0.00 in0.0 mm 0.00 in0.0 mm 0.01 in0.3 mm
09:55 AM 45.1°F7.3°C 40.9°F4.9°C 85% 9.8 mph SSW15.8 kmh SSW 19.7 mph31.7 kmh 30.01 in1016.3 mb 0.00 in0.0 mm 0.00 in0.0 mm 0.01 in0.3 mm
09:50 AM 45.0°F7.2°C 40.7°F4.8°C 85% 11.4 mph SSW18.3 kmh SSW 19.7 mph31.7 kmh 30.01 in1016.3 mb 0.00 in0.0 mm 0.00 in0.0 mm 0.01 in0.3 mm
09:45 AM 45.0°F7.2°C 40.7°F4.8°C 85% 12.1 mph SW19.5 kmh SW 20.6 mph33.2 kmh 30.01 in1016.3 mb 0.00 in0.0 mm 0.00 in0.0 mm 0.01 in0.3 mm
09:40 AM 45.0°F7.2°C 40.7°F4.8°C 85% 9.8 mph SW15.8 kmh SW 22.1 mph35.6 kmh 30.01 in1016.3 mb 0.00 in0.0 mm 0.00 in0.0 mm 0.01 in0.3 mm
09:35 AM 44.8°F7.1°C 40.6°F4.8°C 85% 15.2 mph SW24.5 kmh SW 22.8 mph36.7 kmh 30.01 in1016.3 mb 0.00 in0.0 mm 0.00 in0.0 mm 0.01 in0.3 mm
09:30 AM 44.8°F7.1°C 40.6°F4.8°C 85% 13.0 mph SW20.9 kmh SW 22.8 mph36.7 kmh 30.01 in1016.3 mb 0.00 in0.0 mm 0.00 in0.0 mm 0.01 in0.3 mm
09:25 AM 44.8°F7.1°C 40.6°F4.8°C 85% 12.1 mph SSW19.5 kmh SSW 20.6 mph33.2 kmh 30.02 in1016.6 mb 0.00 in0.0 mm 0.00 in0.0 mm 0.01 in0.3 mm
09:20 AM 44.8°F7.1°C 40.6°F4.8°C 85% 12.1 mph SSW19.5 kmh SSW 19.0 mph30.6 kmh 30.02 in1016.6 mb 0.00 in0.0 mm 0.00 in0.0 mm 0.01 in0.3 mm
09:15 AM 44.6°F7.0°C 40.4°F4.7°C 85% 13.0 mph SW20.9 kmh SW 22.1 mph35.6 kmh 30.02 in1016.6 mb 0.00 in0.0 mm 0.00 in0.0 mm 0.01 in0.3 mm
09:10 AM 44.4°F6.9°C 40.5°F4.7°C 86% 10.7 mph SW17.2 kmh SW 22.1 mph35.6 kmh 30.02 in1016.6 mb 0.00 in0.0 mm 0.00 in0.0 mm 0.01 in0.3 mm
09:05 AM 44.4°F6.9°C 40.5°F4.7°C 86% 11.4 mph SW18.3 kmh SW 24.4 mph39.3 kmh 30.02 in1016.6 mb 0.00 in0.0 mm 0.00 in0.0 mm 0.01 in0.3 mm
09:00 AM 44.4°F6.9°C 40.5°F4.7°C 86% 13.0 mph SSW20.9 kmh SSW 24.4 mph39.3 kmh 30.02 in1016.6 mb 0.00 in0.0 mm 0.00 in0.0 mm 0.01 in0.3 mm
08:55 AM 44.4°F6.9°C 40.5°F4.7°C 86% 12.1 mph SSW19.5 kmh SSW 22.8 mph36.7 kmh 30.02 in1016.6 mb 0.00 in0.0 mm 0.00 in0.0 mm 0.01 in0.3 mm
08:50 AM 44.4°F6.9°C 40.5°F4.7°C 86% 15.2 mph SSW24.5 kmh SSW 21.3 mph34.3 kmh 30.02 in1016.6 mb 0.00 in0.0 mm 0.00 in0.0 mm 0.01 in0.3 mm
08:45 AM 44.4°F6.9°C 40.5°F4.7°C 86% 13.0 mph SSW20.9 kmh SSW 22.1 mph35.6 kmh 30.03 in1016.9 mb 0.00 in0.0 mm 0.00 in0.0 mm 0.01 in0.3 mm
08:40 AM 44.4°F6.9°C 40.5°F4.7°C 86% 15.2 mph SW24.5 kmh SW 23.5 mph37.8 kmh 30.04 in1017.3 mb 0.00 in0.0 mm 0.00 in0.0 mm 0.01 in0.3 mm
08:35 AM 44.4°F6.9°C 40.2°F4.6°C 85% 16.8 mph SW27.0 kmh SW 25.9 mph41.7 kmh 30.03 in1016.9 mb 0.00 in0.0 mm 0.00 in0.0 mm 0.01 in0.3 mm
08:30 AM 44.4°F6.9°C 40.2°F4.6°C 85% 13.6 mph SW21.9 kmh SW 25.9 mph41.7 kmh 30.03 in1016.9 mb 0.00 in0.0 mm 0.00 in0.0 mm 0.01 in0.3 mm
08:25 AM 44.4°F6.9°C 40.2°F4.6°C 85% 14.5 mph SW23.3 kmh SW 25.9 mph41.7 kmh 30.03 in1016.9 mb 0.00 in0.0 mm 0.00 in0.0 mm 0.01 in0.3 mm
08:20 AM 44.2°F6.8°C 40.0°F4.4°C 85% 15.9 mph SW25.6 kmh SW 25.9 mph41.7 kmh 30.04 in1017.3 mb 0.00 in0.0 mm 0.00 in0.0 mm 0.01 in0.3 mm
08:15 AM 44.2°F6.8°C 40.0°F4.4°C 85% 17.4 mph SSW28.0 kmh SSW 28.2 mph45.4 kmh 30.04 in1017.3 mb 0.00 in0.0 mm 0.00 in0.0 mm 0.01 in0.3 mm
08:10 AM 44.2°F6.8°C 40.0°F4.4°C 85% 15.9 mph SW25.6 kmh SW 29.8 mph48.0 kmh 30.04 in1017.3 mb 0.00 in0.0 mm 0.00 in0.0 mm 0.01 in0.3 mm
08:05 AM 44.2°F6.8°C 40.0°F4.4°C 85% 18.3 mph SW29.5 kmh SW 29.8 mph48.0 kmh 30.06 in1017.9 mb 0.00 in0.0 mm 0.00 in0.0 mm 0.01 in0.3 mm
08:00 AM 44.2°F6.8°C 40.0°F4.4°C 85% 13.6 mph SW21.9 kmh SW 27.3 mph43.9 kmh 30.06 in1017.9 mb 0.00 in0.0 mm 0.00 in0.0 mm 0.01 in0.3 mm
07:55 AM 44.2°F6.8°C 40.0°F4.4°C 85% 13.0 mph SSW20.9 kmh SSW 23.5 mph37.8 kmh 30.06 in1017.9 mb 0.00 in0.0 mm 0.00 in0.0 mm 0.01 in0.3 mm
07:50 AM 44.1°F6.7°C 39.8°F4.3°C 85% 15.2 mph SW24.5 kmh SW 21.3 mph34.3 kmh 30.05 in1017.6 mb 0.00 in0.0 mm 0.00 in0.0 mm 0.01 in0.3 mm
07:45 AM 44.2°F6.8°C 40.0°F4.4°C 85% 13.0 mph SW20.9 kmh SW 19.0 mph30.6 kmh 30.05 in1017.6 mb 0.00 in0.0 mm 0.00 in0.0 mm 0.01 in0.3 mm
07:40 AM 44.2°F6.8°C 40.0°F4.4°C 85% 10.7 mph SW17.2 kmh SW 17.4 mph28.0 kmh 30.05 in1017.6 mb 0.00 in0.0 mm 0.00 in0.0 mm 0.01 in0.3 mm
07:20 AM 44.4°F6.9°C 40.2°F4.6°C 85% 10.7 mph SSW17.2 kmh SSW 21.3 mph34.3 kmh 30.06 in1017.9 mb 0.00 in0.0 mm 0.00 in0.0 mm 0.01 in0.3 mm
07:15 AM 44.4°F6.9°C 40.2°F4.6°C 85% 11.4 mph S18.3 kmh S 21.3 mph34.3 kmh 30.07 in1018.3 mb 0.00 in0.0 mm 0.00 in0.0 mm 0.01 in0.3 mm
07:10 AM 44.2°F6.8°C 40.0°F4.4°C 85% 13.0 mph S20.9 kmh S 22.8 mph36.7 kmh 30.07 in1018.3 mb 0.00 in0.0 mm 0.00 in0.0 mm 0.01 in0.3 mm
07:05 AM 44.2°F6.8°C 40.0°F4.4°C 85% 13.6 mph SSW21.9 kmh SSW 24.4 mph39.3 kmh 30.07 in1018.3 mb 0.00 in0.0 mm 0.00 in0.0 mm 0.01 in0.3 mm
07:00 AM 44.2°F6.8°C 40.0°F4.4°C 85% 15.2 mph SSW24.5 kmh SSW 24.4 mph39.3 kmh 30.07 in1018.3 mb 0.00 in0.0 mm 0.00 in0.0 mm 0.01 in0.3 mm
06:55 AM 44.2°F6.8°C 40.0°F4.4°C 85% 12.1 mph SSW19.5 kmh SSW 22.8 mph36.7 kmh 30.07 in1018.3 mb 0.00 in0.0 mm 0.00 in0.0 mm 0.01 in0.3 mm
06:50 AM 44.2°F6.8°C 40.0°F4.4°C 85% 10.7 mph SW17.2 kmh SW 22.8 mph36.7 kmh 30.07 in1018.3 mb 0.00 in0.0 mm 0.00 in0.0 mm 0.01 in0.3 mm
06:45 AM 44.4°F6.9°C 40.2°F4.6°C 85% 9.8 mph SW15.8 kmh SW 22.8 mph36.7 kmh 30.08 in1018.6 mb 0.00 in0.0 mm 0.00 in0.0 mm 0.01 in0.3 mm
06:40 AM 44.4°F6.9°C 40.2°F4.6°C 85% 15.9 mph SSW25.6 kmh SSW 22.8 mph36.7 kmh 30.08 in1018.6 mb 0.00 in0.0 mm 0.00 in0.0 mm 0.01 in0.3 mm
06:35 AM 44.4°F6.9°C 40.2°F4.6°C 85% 13.6 mph SSW21.9 kmh SSW 22.8 mph36.7 kmh 30.09 in1019.0 mb 0.00 in0.0 mm 0.00 in0.0 mm 0.01 in0.3 mm
06:30 AM 44.4°F6.9°C 39.9°F4.4°C 84% 14.5 mph SSW23.3 kmh SSW 21.3 mph34.3 kmh 30.09 in1019.0 mb 0.00 in0.0 mm 0.00 in0.0 mm 0.01 in0.3 mm
06:25 AM 44.4°F6.9°C 39.9°F4.4°C 84% 10.7 mph SW17.2 kmh SW 22.8 mph36.7 kmh 30.09 in1019.0 mb 0.00 in0.0 mm 0.00 in0.0 mm 0.01 in0.3 mm
06:20 AM 44.4°F6.9°C 39.9°F4.4°C 84% 17.4 mph SW28.0 kmh SW 25.9 mph41.7 kmh 30.09 in1019.0 mb 0.00 in0.0 mm 0.00 in0.0 mm 0.01 in0.3 mm
06:15 AM 44.4°F6.9°C 39.9°F4.4°C 84% 13.0 mph SW20.9 kmh SW 28.2 mph45.4 kmh 30.09 in1019.0 mb 0.00 in0.0 mm 0.00 in0.0 mm 0.01 in0.3 mm
06:10 AM 44.4°F6.9°C 39.9°F4.4°C 84% 15.9 mph SSW25.6 kmh SSW 28.2 mph45.4 kmh 30.10 in1019.3 mb 0.00 in0.0 mm 0.00 in0.0 mm 0.01 in0.3 mm
06:05 AM 44.6°F7.0°C 39.8°F4.3°C 83% 12.1 mph SW19.5 kmh SW 27.3 mph43.9 kmh 30.11 in1019.6 mb 0.00 in0.0 mm 0.00 in0.0 mm 0.01 in0.3 mm
06:00 AM 44.6°F7.0°C 40.1°F4.5°C 84% 15.9 mph SW25.6 kmh SW 28.2 mph45.4 kmh 30.11 in1019.6 mb 0.00 in0.0 mm 0.00 in0.0 mm 0.01 in0.3 mm
05:55 AM 44.6°F7.0°C 40.1°F4.5°C 84% 13.0 mph SW20.9 kmh SW 28.2 mph45.4 kmh 30.10 in1019.3 mb 0.00 in0.0 mm 0.00 in0.0 mm 0.01 in0.3 mm
05:50 AM 44.6°F7.0°C 40.1°F4.5°C 84% 18.3 mph SW29.5 kmh SW 27.3 mph43.9 kmh 30.10 in1019.3 mb 0.00 in0.0 mm 0.00 in0.0 mm 0.01 in0.3 mm
05:45 AM 44.6°F7.0°C 40.1°F4.5°C 84% 19.7 mph SSW31.7 kmh SSW 28.9 mph46.5 kmh 30.10 in1019.3 mb 0.00 in0.0 mm 0.00 in0.0 mm 0.01 in0.3 mm
05:40 AM 44.6°F7.0°C 40.1°F4.5°C 84% 16.8 mph SSW27.0 kmh SSW 28.9 mph46.5 kmh 30.10 in1019.3 mb 0.00 in0.0 mm 0.00 in0.0 mm 0.01 in0.3 mm
05:35 AM 44.6°F7.0°C 40.1°F4.5°C 84% 17.4 mph SSW28.0 kmh SSW 28.2 mph45.4 kmh 30.11 in1019.6 mb 0.00 in0.0 mm 0.00 in0.0 mm 0.01 in0.3 mm
05:30 AM 44.6°F7.0°C 40.1°F4.5°C 84% 16.8 mph SSW27.0 kmh SSW 28.2 mph45.4 kmh 30.11 in1019.6 mb 0.00 in0.0 mm 0.00 in0.0 mm 0.01 in0.3 mm
05:25 AM 44.6°F7.0°C 40.1°F4.5°C 84% 14.5 mph SW23.3 kmh SW 28.9 mph46.5 kmh 30.11 in1019.6 mb 0.00 in0.0 mm 0.00 in0.0 mm 0.01 in0.3 mm
05:20 AM 44.6°F7.0°C 40.1°F4.5°C 84% 16.8 mph SW27.0 kmh SW 28.9 mph46.5 kmh 30.11 in1019.6 mb 0.00 in0.0 mm 0.00 in0.0 mm 0.01 in0.3 mm
05:15 AM 44.6°F7.0°C 40.1°F4.5°C 84% 15.2 mph SSW24.5 kmh SSW 27.3 mph43.9 kmh 30.11 in1019.6 mb 0.00 in0.0 mm 0.00 in0.0 mm 0.01 in0.3 mm
05:10 AM 44.6°F7.0°C 40.1°F4.5°C 84% 17.4 mph SSW28.0 kmh SSW 27.3 mph43.9 kmh 30.11 in1019.6 mb 0.00 in0.0 mm 0.00 in0.0 mm 0.01 in0.3 mm
05:05 AM 44.6°F7.0°C 40.1°F4.5°C 84% 13.0 mph SW20.9 kmh SW 28.2 mph45.4 kmh 30.11 in1019.6 mb 0.00 in0.0 mm 0.00 in0.0 mm 0.01 in0.3 mm
05:00 AM 44.6°F7.0°C 40.1°F4.5°C 84% 16.8 mph SW27.0 kmh SW 28.2 mph45.4 kmh 30.12 in1020.0 mb 0.00 in0.0 mm 0.00 in0.0 mm 0.01 in0.3 mm
04:55 AM 44.4°F6.9°C 40.2°F4.6°C 85% 13.6 mph SW21.9 kmh SW 25.1 mph40.4 kmh 30.13 in1020.3 mb 0.00 in0.0 mm 0.00 in0.0 mm 0.01 in0.3 mm
04:50 AM 44.4°F6.9°C 40.2°F4.6°C 85% 13.0 mph SW20.9 kmh SW 25.1 mph40.4 kmh 30.13 in1020.3 mb 0.00 in0.0 mm 0.00 in0.0 mm 0.01 in0.3 mm
04:45 AM 44.4°F6.9°C 40.2°F4.6°C 85% 13.0 mph SW20.9 kmh SW 25.1 mph40.4 kmh 30.13 in1020.3 mb 0.00 in0.0 mm 0.00 in0.0 mm 0.01 in0.3 mm
04:40 AM 44.4°F6.9°C 40.2°F4.6°C 85% 14.5 mph SW23.3 kmh SW 23.5 mph37.8 kmh 30.13 in1020.3 mb 0.00 in0.0 mm 0.00 in0.0 mm 0.01 in0.3 mm
04:35 AM 44.4°F6.9°C 40.2°F4.6°C 85% 15.9 mph S25.6 kmh S 25.1 mph40.4 kmh 30.14 in1020.7 mb 0.01 in0.3 mm 0.00 in0.0 mm 0.01 in0.3 mm
04:30 AM 44.4°F6.9°C 40.2°F4.6°C 85% 11.4 mph S18.3 kmh S 27.3 mph43.9 kmh 30.14 in1020.7 mb 0.01 in0.3 mm 0.00 in0.0 mm 0.01 in0.3 mm
04:25 AM 44.4°F6.9°C 40.2°F4.6°C 85% 14.5 mph SSW23.3 kmh SSW 27.3 mph43.9 kmh 30.14 in1020.7 mb 0.01 in0.3 mm 0.00 in0.0 mm 0.01 in0.3 mm
04:20 AM 44.4°F6.9°C 40.2°F4.6°C 85% 14.5 mph SW23.3 kmh SW 27.3 mph43.9 kmh 30.14 in1020.7 mb 0.01 in0.3 mm 0.00 in0.0 mm 0.01 in0.3 mm
04:15 AM 44.2°F6.8°C 40.0°F4.4°C 85% 21.3 mph SSW34.3 kmh SSW 27.3 mph43.9 kmh 30.15 in1021.0 mb 0.01 in0.3 mm 0.00 in0.0 mm 0.01 in0.3 mm
04:10 AM 44.2°F6.8°C 40.0°F4.4°C 85% 17.4 mph S28.0 kmh S 27.3 mph43.9 kmh 30.15 in1021.0 mb 0.01 in0.3 mm 0.00 in0.0 mm 0.01 in0.3 mm
04:05 AM 44.2°F6.8°C 40.0°F4.4°C 85% 14.5 mph S23.3 kmh S 27.3 mph43.9 kmh 30.15 in1021.0 mb 0.01 in0.3 mm 0.00 in0.0 mm 0.01 in0.3 mm
04:00 AM 44.2°F6.8°C 40.0°F4.4°C 85% 16.8 mph SSW27.0 kmh SSW 25.1 mph40.4 kmh 30.15 in1021.0 mb 0.01 in0.3 mm 0.00 in0.0 mm 0.01 in0.3 mm
03:55 AM 44.2°F6.8°C 40.0°F4.4°C 85% 14.5 mph SSW23.3 kmh SSW 20.6 mph33.2 kmh 30.16 in1021.3 mb 0.01 in0.3 mm 0.00 in0.0 mm 0.01 in0.3 mm
03:50 AM 44.1°F6.7°C 39.8°F4.3°C 85% 13.6 mph SW21.9 kmh SW 20.6 mph33.2 kmh 30.16 in1021.3 mb 0.01 in0.3 mm 0.00 in0.0 mm 0.01 in0.3 mm
03:45 AM 44.1°F6.7°C 39.8°F4.3°C 85% 13.0 mph SW20.9 kmh SW 21.3 mph34.3 kmh 30.16 in1021.3 mb 0.01 in0.3 mm 0.00 in0.0 mm 0.01 in0.3 mm
03:40 AM 44.1°F6.7°C 39.8°F4.3°C 85% 13.0 mph SW20.9 kmh SW 21.3 mph34.3 kmh 30.16 in1021.3 mb 0.01 in0.3 mm 0.12 in3.0 mm 0.01 in0.3 mm
03:35 AM 44.1°F6.7°C 39.5°F4.2°C 84% 11.4 mph SW18.3 kmh SW 21.3 mph34.3 kmh 30.16 in1021.3 mb 0.00 in0.0 mm 0.00 in0.0 mm 0.00 in0.0 mm
03:30 AM 44.1°F6.7°C 39.8°F4.3°C 85% 10.7 mph SW17.2 kmh SW 21.3 mph34.3 kmh 30.17 in1021.7 mb 0.00 in0.0 mm 0.00 in0.0 mm 0.00 in0.0 mm
03:25 AM 44.1°F6.7°C 39.8°F4.3°C 85% 9.8 mph SW15.8 kmh SW 19.7 mph31.7 kmh 30.17 in1021.7 mb 0.00 in0.0 mm 0.00 in0.0 mm 0.00 in0.0 mm
03:20 AM 44.2°F6.8°C 40.0°F4.4°C 85% 12.1 mph SW19.5 kmh SW 19.7 mph31.7 kmh 30.18 in1022.0 mb 0.00 in0.0 mm 0.00 in0.0 mm 0.00 in0.0 mm
03:15 AM 44.2°F6.8°C 40.0°F4.4°C 85% 13.0 mph SW20.9 kmh SW 19.7 mph31.7 kmh 30.17 in1021.7 mb 0.00 in0.0 mm 0.00 in0.0 mm 0.00 in0.0 mm
03:10 AM 44.2°F6.8°C 40.0°F4.4°C 85% 9.8 mph SW15.8 kmh SW 19.0 mph30.6 kmh 30.18 in1022.0 mb 0.00 in0.0 mm 0.00 in0.0 mm 0.00 in0.0 mm
03:05 AM 44.4°F6.9°C 40.2°F4.6°C 85% 12.1 mph SW19.5 kmh SW 19.0 mph30.6 kmh 30.18 in1022.0 mb 0.00 in0.0 mm 0.00 in0.0 mm 0.00 in0.0 mm
03:00 AM 44.4°F6.9°C 40.2°F4.6°C 85% 9.8 mph SW15.8 kmh SW 15.9 mph25.6 kmh 30.18 in1022.0 mb 0.00 in0.0 mm 0.00 in0.0 mm 0.00 in0.0 mm
02:55 AM 44.4°F6.9°C 40.2°F4.6°C 85% 6.0 mph SW9.7 kmh SW 15.9 mph25.6 kmh 30.18 in1022.0 mb 0.00 in0.0 mm 0.00 in0.0 mm 0.00 in0.0 mm
02:50 AM 44.4°F6.9°C 40.2°F4.6°C 85% 10.7 mph SW17.2 kmh SW 15.9 mph25.6 kmh 30.19 in1022.4 mb 0.00 in0.0 mm 0.00 in0.0 mm 0.00 in0.0 mm
02:45 AM 44.6°F7.0°C 40.1°F4.5°C 84% 9.8 mph SW15.8 kmh SW 18.3 mph29.5 kmh 30.19 in1022.4 mb 0.00 in0.0 mm 0.00 in0.0 mm 0.00 in0.0 mm
02:40 AM 44.8°F7.1°C 40.2°F4.6°C 84% 10.7 mph SW17.2 kmh SW 18.3 mph29.5 kmh 30.19 in1022.4 mb 0.00 in0.0 mm 0.00 in0.0 mm 0.00 in0.0 mm
02:35 AM 45.0°F7.2°C 40.4°F4.7°C 84% 12.1 mph WSW19.5 kmh WSW 18.3 mph29.5 kmh 30.19 in1022.4 mb 0.00 in0.0 mm 0.00 in0.0 mm 0.00 in0.0 mm
02:30 AM 45.1°F7.3°C 40.9°F4.9°C 85% 7.6 mph SW12.2 kmh SW 18.3 mph29.5 kmh 30.19 in1022.4 mb 0.00 in0.0 mm 0.00 in0.0 mm 0.00 in0.0 mm
02:25 AM 45.1°F7.3°C 40.9°F4.9°C 85% 9.8 mph SW15.8 kmh SW 19.7 mph31.7 kmh 30.19 in1022.4 mb 0.00 in0.0 mm 0.00 in0.0 mm 0.00 in0.0 mm
02:20 AM 45.1°F7.3°C 40.9°F4.9°C 85% 13.0 mph WSW20.9 kmh WSW 19.7 mph31.7 kmh 30.19 in1022.4 mb 0.00 in0.0 mm 0.00 in0.0 mm 0.00 in0.0 mm
02:15 AM 45.1°F7.3°C 40.9°F4.9°C 85% 9.2 mph WSW14.8 kmh WSW 17.4 mph28.0 kmh 30.19 in1022.4 mb 0.00 in0.0 mm 0.00 in0.0 mm 0.00 in0.0 mm
02:10 AM 45.1°F7.3°C 40.9°F4.9°C 85% 7.6 mph SW12.2 kmh SW 17.4 mph28.0 kmh 30.19 in1022.4 mb 0.00 in0.0 mm 0.00 in0.0 mm 0.00 in0.0 mm
02:05 AM 45.1°F7.3°C 40.9°F4.9°C 85% 13.0 mph SW20.9 kmh SW 19.7 mph31.7 kmh 30.19 in1022.4 mb 0.00 in0.0 mm 0.00 in0.0 mm 0.00 in0.0 mm
02:00 AM 45.0°F7.2°C 40.7°F4.8°C 85% 13.0 mph SW20.9 kmh SW 19.7 mph31.7 kmh 30.19 in1022.4 mb 0.00 in0.0 mm 0.00 in0.0 mm 0.00 in0.0 mm
01:55 AM 45.0°F7.2°C 40.7°F4.8°C 85% 10.7 mph SW17.2 kmh SW 19.0 mph30.6 kmh 30.19 in1022.4 mb 0.00 in0.0 mm 0.00 in0.0 mm 0.00 in0.0 mm
01:50 AM 44.8°F7.1°C 40.6°F4.8°C 85% 14.5 mph SW23.3 kmh SW 19.0 mph30.6 kmh 30.19 in1022.4 mb 0.00 in0.0 mm 0.00 in0.0 mm 0.00 in0.0 mm
01:45 AM 44.8°F7.1°C 40.6°F4.8°C 85% 9.8 mph SW15.8 kmh SW 17.4 mph28.0 kmh 30.18 in1022.0 mb 0.00 in0.0 mm 0.00 in0.0 mm 0.00 in0.0 mm
01:40 AM 44.8°F7.1°C 40.6°F4.8°C 85% 9.8 mph SW15.8 kmh SW 17.4 mph28.0 kmh 30.18 in1022.0 mb 0.00 in0.0 mm 0.00 in0.0 mm 0.00 in0.0 mm
01:35 AM 44.8°F7.1°C 40.6°F4.8°C 85% 11.4 mph SW18.3 kmh SW 17.4 mph28.0 kmh 30.18 in1022.0 mb 0.00 in0.0 mm 0.00 in0.0 mm 0.00 in0.0 mm
01:30 AM 44.8°F7.1°C 40.6°F4.8°C 85% 14.5 mph WSW23.3 kmh WSW 18.3 mph29.5 kmh 30.18 in1022.0 mb 0.00 in0.0 mm 0.00 in0.0 mm 0.00 in0.0 mm
01:25 AM 44.8°F7.1°C 40.6°F4.8°C 85% 9.8 mph SW15.8 kmh SW 18.3 mph29.5 kmh 30.18 in1022.0 mb 0.00 in0.0 mm 0.00 in0.0 mm 0.00 in0.0 mm
01:20 AM 44.8°F7.1°C 40.6°F4.8°C 85% 9.8 mph SW15.8 kmh SW 18.3 mph29.5 kmh 30.17 in1021.7 mb 0.00 in0.0 mm 0.00 in0.0 mm 0.00 in0.0 mm
01:15 AM 44.8°F7.1°C 40.6°F4.8°C 85% 9.2 mph SW14.8 kmh SW 18.3 mph29.5 kmh 30.18 in1022.0 mb 0.00 in0.0 mm 0.00 in0.0 mm 0.00 in0.0 mm
01:10 AM 44.6°F7.0°C 40.4°F4.7°C 85% 10.7 mph SW17.2 kmh SW 18.3 mph29.5 kmh 30.18 in1022.0 mb 0.00 in0.0 mm 0.00 in0.0 mm 0.00 in0.0 mm
01:05 AM 44.6°F7.0°C 40.1°F4.5°C 84% 4.5 mph SW7.2 kmh SW 15.2 mph24.5 kmh 30.18 in1022.0 mb 0.00 in0.0 mm 0.00 in0.0 mm 0.00 in0.0 mm
01:00 AM 44.4°F6.9°C 40.2°F4.6°C 85% 7.6 mph WSW12.2 kmh WSW 15.2 mph24.5 kmh 30.18 in1022.0 mb 0.00 in0.0 mm 0.00 in0.0 mm 0.00 in0.0 mm
12:55 AM 44.4°F6.9°C 40.2°F4.6°C 85% 9.2 mph WSW14.8 kmh WSW 15.2 mph24.5 kmh 30.18 in1022.0 mb 0.00 in0.0 mm 0.00 in0.0 mm 0.00 in0.0 mm
12:50 AM 44.4°F6.9°C 40.2°F4.6°C 85% 8.3 mph WSW13.4 kmh WSW 19.0 mph30.6 kmh 30.19 in1022.4 mb 0.00 in0.0 mm 0.00 in0.0 mm 0.00 in0.0 mm
12:45 AM 44.4°F6.9°C 40.2°F4.6°C 85% 7.6 mph SW12.2 kmh SW 19.0 mph30.6 kmh 30.18 in1022.0 mb 0.00 in0.0 mm 0.00 in0.0 mm 0.00 in0.0 mm
12:40 AM 44.6°F7.0°C 40.1°F4.5°C 84% 5.4 mph W8.7 kmh W 14.5 mph23.3 kmh 30.18 in1022.0 mb 0.00 in0.0 mm 0.00 in0.0 mm 0.00 in0.0 mm
12:35 AM 44.6°F7.0°C 40.1°F4.5°C 84% 8.3 mph WSW13.4 kmh WSW 14.5 mph23.3 kmh 30.19 in1022.4 mb 0.00 in0.0 mm 0.00 in0.0 mm 0.00 in0.0 mm
12:30 AM 44.8°F7.1°C 40.2°F4.6°C 84% 4.5 mph SW7.2 kmh SW 21.3 mph34.3 kmh 30.18 in1022.0 mb 0.00 in0.0 mm 0.00 in0.0 mm 0.00 in0.0 mm
12:25 AM 45.0°F7.2°C 40.4°F4.7°C 84% 7.6 mph SW12.2 kmh SW 21.3 mph34.3 kmh 30.19 in1022.4 mb 0.00 in0.0 mm 0.00 in0.0 mm 0.00 in0.0 mm
12:20 AM 45.1°F7.3°C 40.9°F4.9°C 85% 15.2 mph SW24.5 kmh SW 21.3 mph34.3 kmh 30.18 in1022.0 mb 0.00 in0.0 mm 0.00 in0.0 mm 0.00 in0.0 mm
12:15 AM 45.0°F7.2°C 40.7°F4.8°C 85% 8.3 mph WSW13.4 kmh WSW 18.3 mph29.5 kmh 30.18 in1022.0 mb 0.00 in0.0 mm 0.00 in0.0 mm 0.00 in0.0 mm
12:10 AM 45.0°F7.2°C 40.7°F4.8°C 85% 9.8 mph WSW15.8 kmh WSW 18.3 mph29.5 kmh 30.18 in1022.0 mb 0.00 in0.0 mm 0.00 in0.0 mm 0.00 in0.0 mm
12:05 AM 44.8°F7.1°C 40.6°F4.8°C 85% 9.8 mph WSW15.8 kmh WSW 16.8 mph27.0 kmh 30.18 in1022.0 mb 0.00 in0.0 mm 0.00 in0.0 mm 0.00 in0.0 mm
12:00 AM 44.8°F7.1°C 40.6°F4.8°C 85% 7.6 mph WSW12.2 kmh WSW 16.8 mph27.0 kmh 30.18 in1022.0 mb 0.00 in0.0 mm 0.00 in0.0 mm 0.00 in0.0 mm